createdAt,value
2022-10-18T00:02:20.195Z,14.40
2022-10-18T00:04:47.680Z,14.50
2022-10-18T00:07:14.699Z,14.40
2022-10-18T00:09:41.464Z,14.40
2022-10-18T00:12:08.205Z,14.30
2022-10-18T00:14:35.008Z,14.20
2022-10-18T00:17:01.801Z,14.20
2022-10-18T00:19:29.376Z,14.20
2022-10-18T00:21:56.223Z,14.10
2022-10-18T00:24:22.911Z,14.10
2022-10-18T00:26:49.577Z,14.10
2022-10-18T00:29:17.820Z,14.10
2022-10-18T00:31:44.625Z,14.10
2022-10-18T00:34:14.361Z,14.10
2022-10-18T00:36:41.831Z,14.10
2022-10-18T00:39:11.620Z,14.10
2022-10-18T00:41:38.421Z,14.20
2022-10-18T00:44:06.453Z,14.10
2022-10-18T00:46:39.152Z,14.10
2022-10-18T00:49:10.467Z,14.20
2022-10-18T00:51:44.227Z,14.20
2022-10-18T00:54:13.153Z,14.20
2022-10-18T00:56:39.950Z,14.20
2022-10-18T00:59:07.778Z,14.10
2022-10-18T01:01:34.494Z,14.10
2022-10-18T01:04:01.269Z,14.00
2022-10-18T01:06:28.839Z,14.10
2022-10-18T01:09:19.926Z,14.00
2022-10-18T01:12:14.512Z,14.10
2022-10-18T01:15:02.521Z,14.20
2022-10-18T01:17:52.637Z,14.20
2022-10-18T01:20:38.382Z,14.20
2022-10-18T01:23:12.761Z,14.20
2022-10-18T01:26:02.542Z,14.20
2022-10-18T01:28:50.259Z,14.30
2022-10-18T01:31:22.721Z,14.30
2022-10-18T01:33:56.539Z,14.30
2022-10-18T01:36:34.004Z,14.20
2022-10-18T01:39:05.779Z,14.20
2022-10-18T01:41:35.353Z,14.30
2022-10-18T01:44:04.622Z,14.20
2022-10-18T01:46:32.512Z,14.20
2022-10-18T01:49:00.155Z,14.30
2022-10-18T01:51:29.044Z,14.20
2022-10-18T01:53:56.207Z,14.10
2022-10-18T01:56:40.061Z,14.20
2022-10-18T01:59:30.821Z,14.20
2022-10-18T02:02:15.210Z,14.20
2022-10-18T02:04:59.008Z,14.20
2022-10-18T02:07:34.348Z,14.40
2022-10-18T02:12:49.305Z,14.40
2022-10-18T02:15:19.685Z,14.30
2022-10-18T02:17:47.202Z,14.30
2022-10-18T02:20:17.945Z,14.40
2022-10-18T02:22:46.000Z,14.30
2022-10-18T02:25:20.241Z,14.30
2022-10-18T02:27:47.483Z,14.30
2022-10-18T02:30:15.718Z,14.40
2022-10-18T02:32:51.141Z,14.30
2022-10-18T02:35:24.664Z,14.40
2022-10-18T02:37:53.841Z,14.30
2022-10-18T02:40:20.719Z,14.40
2022-10-18T02:42:51.363Z,14.40
2022-10-18T02:45:18.368Z,14.40
2022-10-18T02:47:45.381Z,14.40
2022-10-18T02:50:12.344Z,14.40
2022-10-18T02:52:39.143Z,14.40
2022-10-18T02:55:06.671Z,14.40
2022-10-18T02:57:34.109Z,14.50
2022-10-18T03:00:01.020Z,14.40
2022-10-18T03:02:27.770Z,14.40
2022-10-18T03:04:54.415Z,14.40
2022-10-18T03:07:21.067Z,14.50
2022-10-18T03:09:47.742Z,14.50
2022-10-18T03:12:14.560Z,14.40
2022-10-18T03:14:41.161Z,14.50
2022-10-18T03:17:08.158Z,14.40
2022-10-18T03:19:34.752Z,14.50
2022-10-18T03:22:01.404Z,14.50
2022-10-18T03:24:28.159Z,14.50
2022-10-18T03:26:54.804Z,14.50
2022-10-18T03:29:21.507Z,14.60
2022-10-18T03:31:48.264Z,14.50
2022-10-18T03:34:16.250Z,14.50
2022-10-18T03:36:43.133Z,14.50
2022-10-18T03:39:11.493Z,14.40
2022-10-18T03:41:38.136Z,14.40
2022-10-18T03:44:04.933Z,14.50
2022-10-18T03:46:31.596Z,14.60
2022-10-18T03:48:58.293Z,14.60
2022-10-18T03:51:24.973Z,14.50
2022-10-18T03:53:51.618Z,14.50
2022-10-18T03:56:18.278Z,14.50
2022-10-18T03:58:45.072Z,14.50
2022-10-18T04:01:12.092Z,14.50
2022-10-18T04:03:38.882Z,14.50
2022-10-18T04:06:05.739Z,14.60
2022-10-18T04:08:32.359Z,14.60
2022-10-18T04:10:59.039Z,14.50
2022-10-18T04:13:25.745Z,14.60
2022-10-18T04:15:52.335Z,14.50
2022-10-18T04:18:18.935Z,14.50
2022-10-18T04:20:45.712Z,14.40
2022-10-18T04:23:12.353Z,14.50
2022-10-18T04:25:39.002Z,14.50
2022-10-18T04:28:05.764Z,14.60
2022-10-18T04:30:32.375Z,14.60
2022-10-18T04:32:58.999Z,14.60
2022-10-18T04:35:26.106Z,14.50
2022-10-18T04:37:52.778Z,14.60
2022-10-18T04:40:20.097Z,14.60
2022-10-18T04:42:47.371Z,14.60
2022-10-18T04:45:14.013Z,14.60
2022-10-18T04:47:40.650Z,14.60
2022-10-18T04:50:07.631Z,14.60
2022-10-18T04:52:34.365Z,14.60
2022-10-18T04:55:00.967Z,14.60
2022-10-18T04:57:27.763Z,14.60
2022-10-18T04:59:54.350Z,14.60
2022-10-18T05:02:20.989Z,14.60
2022-10-18T05:04:47.632Z,14.60
2022-10-18T05:07:14.331Z,14.60
2022-10-18T05:09:40.967Z,14.60
2022-10-18T05:12:07.599Z,14.60
2022-10-18T05:14:34.270Z,14.60
2022-10-18T05:17:00.893Z,14.60
2022-10-18T05:19:27.603Z,14.60
2022-10-18T05:21:54.321Z,14.60
2022-10-18T05:24:21.999Z,14.60
2022-10-18T05:26:50.862Z,14.60
2022-10-18T05:29:17.641Z,14.60
2022-10-18T05:31:44.374Z,14.60
2022-10-18T05:34:11.020Z,14.60
2022-10-18T05:36:37.624Z,14.60
2022-10-18T05:39:05.298Z,14.80
2022-10-18T05:41:32.513Z,14.80
2022-10-18T05:43:59.192Z,14.70
2022-10-18T05:46:25.803Z,14.80
2022-10-18T05:48:52.567Z,14.80
2022-10-18T05:51:19.552Z,14.90
2022-10-18T05:53:46.374Z,14.80
2022-10-18T05:56:14.363Z,14.90
2022-10-18T05:58:42.688Z,14.80
2022-10-18T06:01:10.262Z,14.70
2022-10-18T06:03:36.961Z,14.50
2022-10-18T06:06:09.401Z,14.30
2022-10-18T06:08:37.409Z,14.40
2022-10-18T06:11:11.373Z,14.40
2022-10-18T06:13:42.392Z,14.40
2022-10-18T06:16:09.550Z,14.30
2022-10-18T06:18:36.460Z,14.40
2022-10-18T06:21:03.121Z,14.40
2022-10-18T06:23:30.197Z,14.40
2022-10-18T06:26:05.793Z,14.40
2022-10-18T06:28:35.023Z,14.40
2022-10-18T06:31:02.002Z,14.30
2022-10-18T06:33:30.905Z,14.10
2022-10-18T06:36:03.456Z,14.20
2022-10-18T06:38:30.780Z,14.30
2022-10-18T06:40:58.848Z,14.30
2022-10-18T06:43:25.926Z,14.30
2022-10-18T06:45:53.449Z,14.40
2022-10-18T06:48:21.402Z,14.40
2022-10-18T06:50:58.934Z,14.40
2022-10-18T06:53:29.327Z,14.40
2022-10-18T06:56:03.054Z,14.50
2022-10-18T06:58:30.692Z,14.60
2022-10-18T07:00:57.768Z,14.60
2022-10-18T07:03:24.668Z,14.70
2022-10-18T07:05:51.350Z,14.80
2022-10-18T07:08:18.473Z,14.80
2022-10-18T07:10:53.064Z,14.80
2022-10-18T07:13:31.894Z,14.90
2022-10-18T07:16:07.033Z,14.90
2022-10-18T07:18:35.631Z,15.00
2022-10-18T07:21:07.737Z,15.00
2022-10-18T07:23:42.669Z,14.90
2022-10-18T07:26:19.722Z,14.80
2022-10-18T07:28:49.958Z,14.90
2022-10-18T07:31:17.419Z,15.00
2022-10-18T07:33:44.087Z,15.00
2022-10-18T07:36:12.221Z,15.00
2022-10-18T07:38:39.327Z,15.10
2022-10-18T07:41:07.756Z,15.00
2022-10-18T07:43:35.297Z,15.10
2022-10-18T07:46:04.200Z,15.10
2022-10-18T07:48:31.023Z,15.10
2022-10-18T07:51:02.062Z,15.10
2022-10-18T07:53:29.613Z,15.20
2022-10-18T07:56:07.291Z,15.20
2022-10-18T07:58:36.100Z,15.20
2022-10-18T08:01:07.513Z,15.20
2022-10-18T08:03:34.967Z,15.20
2022-10-18T08:06:01.853Z,15.20
2022-10-18T08:08:29.424Z,15.30
2022-10-18T08:11:01.371Z,15.40
2022-10-18T08:13:28.042Z,15.40
2022-10-18T08:16:00.884Z,15.50
2022-10-18T08:18:28.049Z,15.50
2022-10-18T08:20:54.671Z,15.50
2022-10-18T08:23:21.513Z,15.60
2022-10-18T08:25:48.374Z,15.60
2022-10-18T08:28:15.033Z,15.60
2022-10-18T08:30:41.676Z,15.60
2022-10-18T08:33:08.308Z,15.70
2022-10-18T08:35:35.119Z,15.70
2022-10-18T08:38:01.807Z,15.70
2022-10-18T08:40:28.857Z,15.70
2022-10-18T08:43:42.109Z,15.70
2022-10-18T08:46:12.487Z,15.70
2022-10-18T08:48:51.559Z,15.70
2022-10-18T08:51:28.330Z,15.60
2022-10-18T08:54:04.096Z,15.60
2022-10-18T08:56:32.170Z,15.70
2022-10-18T08:58:58.835Z,15.70
2022-10-18T09:01:41.268Z,15.70
2022-10-18T09:04:17.834Z,15.70
2022-10-18T09:07:09.641Z,15.70
2022-10-18T09:09:39.088Z,15.70
2022-10-18T09:12:43.841Z,15.70
2022-10-18T09:15:34.438Z,15.80
2022-10-18T09:18:13.019Z,15.80
2022-10-18T09:21:04.182Z,15.80
2022-10-18T09:23:44.061Z,15.80
2022-10-18T09:26:14.626Z,15.80
2022-10-18T09:28:58.930Z,15.80
2022-10-18T09:31:53.828Z,15.80
2022-10-18T09:34:38.780Z,15.80
2022-10-18T09:37:16.051Z,15.90
2022-10-18T09:39:43.704Z,16.00
2022-10-18T09:42:28.537Z,16.00
2022-10-18T09:45:00.821Z,16.10
2022-10-18T09:47:58.297Z,16.20
2022-10-18T09:50:32.212Z,16.20
2022-10-18T09:53:19.226Z,16.30
2022-10-18T09:56:06.489Z,16.30
2022-10-18T09:58:46.857Z,16.30
2022-10-18T10:01:19.493Z,16.30
2022-10-18T10:03:46.381Z,16.40
2022-10-18T10:06:13.110Z,16.50
2022-10-18T10:08:43.735Z,16.40
2022-10-18T10:11:30.436Z,16.50
2022-10-18T10:14:06.297Z,16.50
2022-10-18T10:16:32.997Z,16.60
2022-10-18T10:18:59.962Z,16.60
2022-10-18T10:21:26.733Z,16.70
2022-10-18T10:23:56.985Z,16.70
2022-10-18T10:26:34.321Z,16.70
2022-10-18T10:29:01.337Z,16.80
2022-10-18T10:31:31.929Z,16.80
2022-10-18T10:34:00.247Z,16.80
2022-10-18T10:36:26.879Z,16.80
2022-10-18T10:39:06.378Z,16.90
2022-10-18T10:41:33.595Z,16.90
2022-10-18T10:44:03.912Z,17.00
2022-10-18T10:46:36.448Z,17.00
2022-10-18T10:49:35.034Z,17.00
2022-10-18T10:52:08.762Z,17.00
2022-10-18T10:54:50.384Z,17.00
2022-10-18T10:57:24.836Z,17.10
2022-10-18T10:59:54.151Z,17.20
2022-10-18T11:02:26.858Z,17.20
2022-10-18T11:04:55.510Z,17.20
2022-10-18T11:07:41.644Z,17.30
2022-10-18T11:10:11.478Z,17.30
2022-10-18T11:12:47.024Z,17.30
2022-10-18T11:15:19.670Z,17.30
2022-10-18T11:18:08.797Z,17.40
2022-10-18T11:20:40.825Z,17.40
2022-10-18T11:23:11.302Z,17.50
2022-10-18T11:26:11.975Z,17.50
2022-10-18T11:29:03.800Z,17.50
2022-10-18T11:31:33.478Z,17.60
2022-10-18T11:34:30.928Z,17.60
2022-10-18T11:37:37.579Z,17.60
2022-10-18T11:40:24.016Z,17.70
2022-10-18T11:43:12.309Z,17.70
2022-10-18T11:46:02.643Z,17.90
2022-10-18T11:49:02.191Z,17.90
2022-10-18T11:52:07.349Z,18.00
2022-10-18T11:54:46.944Z,18.00
2022-10-18T11:57:54.455Z,18.00
2022-10-18T12:00:21.107Z,18.00
2022-10-18T12:02:50.648Z,18.00
2022-10-18T12:05:23.510Z,18.00
2022-10-18T12:08:05.171Z,18.00
2022-10-18T12:10:46.003Z,18.00
2022-10-18T12:13:43.869Z,18.00
2022-10-18T12:16:12.258Z,18.00
2022-10-18T12:18:59.657Z,18.00
2022-10-18T12:21:32.714Z,18.00
2022-10-18T12:24:22.803Z,17.90
2022-10-18T12:26:53.551Z,17.90
2022-10-18T12:29:29.846Z,18.00
2022-10-18T12:32:01.724Z,18.00
2022-10-18T12:34:51.151Z,18.10
2022-10-18T12:37:20.773Z,18.20
2022-10-18T12:40:14.380Z,18.20
2022-10-18T12:42:48.135Z,18.20
2022-10-18T12:45:14.741Z,18.20
2022-10-18T12:47:41.398Z,18.30
2022-10-18T12:50:29.560Z,18.30
2022-10-18T12:53:03.721Z,18.30
2022-10-18T12:55:40.222Z,18.40
2022-10-18T12:58:31.629Z,18.30
2022-10-18T13:01:04.905Z,18.30
2022-10-18T13:03:49.735Z,18.30
2022-10-18T13:06:16.484Z,18.30
2022-10-18T13:08:43.608Z,18.20
2022-10-18T13:11:10.355Z,18.30
2022-10-18T13:13:45.255Z,18.20
2022-10-18T13:16:41.708Z,18.30
2022-10-18T13:19:17.375Z,18.30
2022-10-18T13:21:58.549Z,18.30
2022-10-18T13:24:37.317Z,18.30
2022-10-18T13:30:17.618Z,18.30
2022-10-18T13:33:22.159Z,18.30
2022-10-18T13:36:22.707Z,18.20
2022-10-18T13:38:57.680Z,18.20
2022-10-18T13:41:29.155Z,18.20
2022-10-18T13:44:16.701Z,18.20
2022-10-18T13:46:43.280Z,18.30
2022-10-18T13:49:40.298Z,18.30
2022-10-18T13:52:47.996Z,18.30
2022-10-18T13:55:39.247Z,18.40
2022-10-18T13:58:41.099Z,18.40
2022-10-18T14:01:32.863Z,18.40
2022-10-18T14:04:21.359Z,18.40
2022-10-18T14:06:48.920Z,18.40
2022-10-18T14:09:40.407Z,18.40
2022-10-18T14:12:21.851Z,18.40
2022-10-18T14:14:56.097Z,18.30
2022-10-18T14:17:35.054Z,18.40
2022-10-18T14:20:36.916Z,18.40
2022-10-18T14:23:24.548Z,18.40
2022-10-18T14:25:51.200Z,18.40
2022-10-18T14:28:27.413Z,18.40
2022-10-18T14:31:12.389Z,18.40
2022-10-18T14:33:41.309Z,18.40
2022-10-18T14:36:16.015Z,18.40
2022-10-18T14:38:53.527Z,18.40
2022-10-18T14:41:20.146Z,18.40
2022-10-18T14:43:48.146Z,18.40
2022-10-18T14:46:29.022Z,18.40
2022-10-18T14:49:04.428Z,18.40
2022-10-18T14:51:35.341Z,18.40
2022-10-18T14:54:02.452Z,18.40
2022-10-18T14:56:31.137Z,18.40
2022-10-18T14:59:01.863Z,18.40
2022-10-18T15:01:31.937Z,18.40
2022-10-18T15:04:11.197Z,18.40
2022-10-18T15:06:43.538Z,18.40
2022-10-18T15:09:12.569Z,18.40
2022-10-18T15:11:41.361Z,18.40
2022-10-18T15:14:14.574Z,18.40
2022-10-18T15:16:41.375Z,18.40
2022-10-18T15:19:14.167Z,18.30
2022-10-18T15:25:15.358Z,18.30
2022-10-18T15:27:55.479Z,18.20
2022-10-18T15:30:36.516Z,18.20
2022-10-18T15:33:09.614Z,18.10
2022-10-18T15:35:38.356Z,18.00
2022-10-18T15:38:32.704Z,17.90
2022-10-18T15:40:59.548Z,18.00
2022-10-18T15:43:26.141Z,17.90
2022-10-18T15:46:05.024Z,17.90
2022-10-18T15:48:39.523Z,18.00
2022-10-18T15:51:37.361Z,17.90
2022-10-18T15:54:04.047Z,18.20
2022-10-18T15:56:32.021Z,17.90
2022-10-18T15:59:06.870Z,17.60
2022-10-18T16:01:38.352Z,17.50
2022-10-18T16:04:10.070Z,17.40
2022-10-18T16:06:38.578Z,17.40
2022-10-18T16:09:05.896Z,17.30
2022-10-18T16:11:32.600Z,17.30
2022-10-18T16:14:00.531Z,17.20
2022-10-18T16:16:29.092Z,17.10
2022-10-18T16:18:56.317Z,17.10
2022-10-18T16:21:27.248Z,17.10
2022-10-18T16:23:54.424Z,17.00
2022-10-18T16:26:22.314Z,16.90
2022-10-18T16:28:49.725Z,17.00
2022-10-18T16:31:20.597Z,17.10
2022-10-18T16:33:50.156Z,16.90
2022-10-18T16:36:19.016Z,16.90
2022-10-18T16:38:46.532Z,16.80
2022-10-18T16:41:14.971Z,16.70
2022-10-18T16:43:46.367Z,16.60
2022-10-18T16:46:21.709Z,16.60
2022-10-18T16:48:49.637Z,16.70
2022-10-18T16:51:17.200Z,16.70
2022-10-18T16:53:44.125Z,16.80
2022-10-18T16:56:15.477Z,16.70
2022-10-18T16:58:42.631Z,16.60
2022-10-18T17:01:13.750Z,16.60
2022-10-18T17:03:40.707Z,16.50
2022-10-18T17:06:18.991Z,16.40
2022-10-18T17:08:45.810Z,16.40
2022-10-18T17:11:14.559Z,16.20
2022-10-18T17:13:41.983Z,16.20
2022-10-18T17:19:07.153Z,16.20
2022-10-18T17:21:34.028Z,16.20
2022-10-18T17:24:05.827Z,16.20
2022-10-18T17:26:33.416Z,16.20
2022-10-18T17:29:04.896Z,16.20
2022-10-18T17:31:32.536Z,16.20
2022-10-18T17:34:01.491Z,16.20
2022-10-18T17:36:29.352Z,16.20
2022-10-18T17:38:56.057Z,16.20
2022-10-18T17:41:23.371Z,16.20
2022-10-18T17:43:50.245Z,16.10
2022-10-18T17:46:17.845Z,16.10
2022-10-18T17:48:44.637Z,16.10
2022-10-18T17:51:14.249Z,16.10
2022-10-18T17:53:41.210Z,16.10
2022-10-18T17:56:08.319Z,16.00
2022-10-18T17:58:35.399Z,15.90
2022-10-18T18:01:13.338Z,15.90
2022-10-18T18:03:41.135Z,15.80
2022-10-18T18:06:31.229Z,15.90
2022-10-18T18:09:00.060Z,15.80
2022-10-18T18:11:28.209Z,15.70
2022-10-18T18:13:56.179Z,15.80
2022-10-18T18:16:26.106Z,15.80
2022-10-18T18:18:55.334Z,15.80
2022-10-18T18:21:23.173Z,15.70
2022-10-18T18:23:50.913Z,15.70
2022-10-18T18:26:18.451Z,15.70
2022-10-18T18:28:45.957Z,15.70
2022-10-18T18:31:23.815Z,15.70
2022-10-18T18:33:56.085Z,15.60
2022-10-18T18:36:24.615Z,15.60
2022-10-18T18:38:57.002Z,15.50
2022-10-18T18:41:25.860Z,15.40
2022-10-18T18:43:57.793Z,15.40
2022-10-18T18:46:26.309Z,15.40
2022-10-18T18:48:53.020Z,15.40
2022-10-18T18:51:21.548Z,15.30
2022-10-18T18:53:48.751Z,15.30
2022-10-18T18:58:54.142Z,15.10
2022-10-18T19:01:29.701Z,15.20
2022-10-18T19:03:58.141Z,15.10
2022-10-18T19:06:33.594Z,15.00
2022-10-18T19:09:03.720Z,15.00
2022-10-18T19:11:36.356Z,14.90
2022-10-18T19:14:03.793Z,14.90
2022-10-18T19:16:34.402Z,14.90
2022-10-18T19:19:12.647Z,14.90
2022-10-18T19:21:41.815Z,14.90
2022-10-18T19:24:09.109Z,14.80
2022-10-18T19:26:44.463Z,14.80
2022-10-18T19:29:14.940Z,14.90
2022-10-18T19:31:41.986Z,14.90
2022-10-18T19:34:10.563Z,14.90
2022-10-18T19:36:38.363Z,14.80
2022-10-18T19:39:07.269Z,14.80
2022-10-18T19:41:34.099Z,14.70
2022-10-18T19:44:00.917Z,14.70
2022-10-18T19:46:27.826Z,14.60
2022-10-18T19:48:54.451Z,14.60
2022-10-18T19:51:26.841Z,14.60
2022-10-18T19:53:55.413Z,14.60
2022-10-18T19:56:23.998Z,14.50
2022-10-18T19:58:51.133Z,14.50
2022-10-18T20:01:19.228Z,14.40
2022-10-18T20:03:46.365Z,14.50
2022-10-18T20:06:13.118Z,14.50
2022-10-18T20:08:39.998Z,14.50
2022-10-18T20:11:10.227Z,14.60
2022-10-18T20:13:37.372Z,14.70
2022-10-18T20:16:05.974Z,14.70
2022-10-18T20:18:33.232Z,14.70
2022-10-18T20:20:59.963Z,14.70
2022-10-18T20:23:26.679Z,14.70
2022-10-18T20:26:01.846Z,14.60
2022-10-18T20:28:28.778Z,14.60
2022-10-18T20:31:13.590Z,14.70
2022-10-18T20:33:40.348Z,14.70
2022-10-18T20:36:08.085Z,14.80
2022-10-18T20:38:37.234Z,14.70
2022-10-18T20:41:08.932Z,14.60
2022-10-18T20:43:36.075Z,14.50
2022-10-18T20:46:04.028Z,14.40
2022-10-18T20:48:32.212Z,14.40
2022-10-18T20:51:07.328Z,14.50
2022-10-18T20:53:37.761Z,14.50
2022-10-18T20:56:09.554Z,14.40
2022-10-18T20:58:37.567Z,14.50
2022-10-18T21:01:09.036Z,14.40
2022-10-18T21:03:41.633Z,14.50
2022-10-18T21:06:14.048Z,14.50
2022-10-18T21:08:41.529Z,14.30
2022-10-18T21:11:08.546Z,14.50
2022-10-18T21:13:35.694Z,14.40
2022-10-18T21:16:03.544Z,14.40
2022-10-18T21:18:33.124Z,14.40
2022-10-18T21:21:17.647Z,14.20
2022-10-18T21:23:44.754Z,14.10
2022-10-18T21:26:29.592Z,14.20
2022-10-18T21:28:58.662Z,14.30
2022-10-18T21:31:27.518Z,14.30
2022-10-18T21:33:56.855Z,14.30
2022-10-18T21:36:24.579Z,14.30
2022-10-18T21:38:51.739Z,14.30
2022-10-18T21:41:20.497Z,14.20
2022-10-18T21:43:50.102Z,14.30
2022-10-18T21:46:18.539Z,14.40
2022-10-18T21:48:47.578Z,14.30
2022-10-18T21:51:17.538Z,14.20
2022-10-18T21:53:46.819Z,14.10
2022-10-18T21:56:24.030Z,14.20
2022-10-18T21:58:51.120Z,14.20
2022-10-18T22:01:20.854Z,14.30
2022-10-18T22:03:50.075Z,14.40
2022-10-18T22:06:17.482Z,14.30
2022-10-18T22:08:49.937Z,14.40
2022-10-18T22:11:18.366Z,14.30
2022-10-18T22:13:45.484Z,14.20
2022-10-18T22:16:16.985Z,14.20
2022-10-18T22:18:45.125Z,14.30
2022-10-18T22:21:13.375Z,14.30
2022-10-18T22:23:52.044Z,14.40
2022-10-18T22:26:28.316Z,14.30
2022-10-18T22:28:57.165Z,14.20
2022-10-18T22:31:27.631Z,14.10
2022-10-18T22:33:56.615Z,14.20
2022-10-18T22:36:23.981Z,14.10
2022-10-18T22:38:51.019Z,14.20
2022-10-18T22:41:18.236Z,14.10
2022-10-18T22:43:45.462Z,14.10
2022-10-18T22:46:13.825Z,14.10
2022-10-18T22:48:41.657Z,14.10
2022-10-18T22:51:08.991Z,14.00
2022-10-18T22:53:37.089Z,14.00
2022-10-18T22:56:04.415Z,13.90
2022-10-18T22:58:31.854Z,13.80
2022-10-18T23:01:07.041Z,13.90
2022-10-18T23:03:34.147Z,14.00
2022-10-18T23:06:01.051Z,14.00
2022-10-18T23:08:28.312Z,14.00
2022-10-18T23:10:58.009Z,14.00
2022-10-18T23:13:26.139Z,14.00
2022-10-18T23:15:53.433Z,14.10
2022-10-18T23:18:20.107Z,14.10
2022-10-18T23:20:46.964Z,14.00
2022-10-18T23:23:14.123Z,14.00
2022-10-18T23:25:41.562Z,14.10
2022-10-18T23:28:08.210Z,14.00
2022-10-18T23:30:38.042Z,14.10
2022-10-18T23:33:04.692Z,14.00
2022-10-18T23:35:31.348Z,14.00
2022-10-18T23:37:58.001Z,14.00
2022-10-18T23:40:24.662Z,14.00
2022-10-18T23:42:51.291Z,14.00
2022-10-18T23:45:18.035Z,14.10
2022-10-18T23:47:44.688Z,14.00
2022-10-18T23:50:11.296Z,14.00
2022-10-18T23:52:37.916Z,14.00
2022-10-18T23:55:05.000Z,14.00
2022-10-18T23:57:31.858Z,14.00
2022-10-18T23:59:58.687Z,14.10
